This is the latest recevied weather packets stored in our database for station/object GW1491. If no packets are shown the sender has not sent any weather packets the latest 10 day(s).
| Time | Temp. | Humidity | Pressure | Rain* | Wind** | Luminosity | Snow |
|---|---|---|---|---|---|---|---|
| 1777671759 | 11.11° C | 76% | 1013.5 hPa | 0.51 mm | - | - | - |
| 1777661322 | 10° C | 91% | 1013.2 hPa | 0.51 mm | - | - | - |
| 1777660943 | 10° C | 91% | 1013.2 hPa | 0.51 mm | - | - | - |
| 1777658814 | 10° C | 88% | 1012.8 hPa | 0.25 mm | - | - | - |
| 1777653757 | 11.67° C | 73% | 1013.2 hPa | 0 mm | - | - | - |
| 1777646530 | 12.22° C | 70% | 1013.5 hPa | 0 mm | - | - | - |
| 1777645821 | 12.22° C | 70% | 1013.5 hPa | 0 mm | - | - | - |
| 1777645450 | 12.22° C | 72% | 1013.5 hPa | 0 mm | - | - | - |
| 1777643292 | 10° C | 82% | 1013.5 hPa | 0 mm | - | - | - |
| 1777639339 | 6.11° C | 98% | 1014.2 hPa | 0 mm | - | - | - |
| 1777638989 | 5.56° C | 99% | 1013.8 hPa | 0 mm | - | - | - |
| 1777638616 | 5.56° C | 99% | 1013.8 hPa | 0 mm | - | - | - |
| 1777630365 | 1.67° C | 99% | 1014.2 hPa | 0 mm | - | - | - |
| 1777629263 | 1.67° C | 99% | 1014.2 hPa | 0 mm | - | - | - |
| 1777628902 | 1.67° C | 99% | 1014.2 hPa | 0 mm | - | - | - |
| 1777626758 | 2.78° C | 99% | 1014.5 hPa | 0 mm | - | - | - |
| 1777625668 | 2.78° C | 99% | 1014.9 hPa | 0 mm | - | - | - |
| 1777624612 | 2.78° C | 98% | 1014.9 hPa | 0 mm | - | - | - |
| 1777624253 | 2.22° C | 98% | 1014.9 hPa | 0 mm | - | - | - |
| 1777623876 | 2.22° C | 98% | 1014.9 hPa | 0 mm | - | - | - |
| 1777623144 | 2.78° C | 97% | 1014.9 hPa | 0 mm | - | - | - |
| 1777621373 | 3.33° C | 96% | 1014.9 hPa | 0 mm | - | - | - |
| 1777620987 | 3.33° C | 96% | 1014.9 hPa | 0 mm | - | - | - |
| 1777618453 | 3.89° C | 93% | 1015.2 hPa | 0 mm | - | - | - |
| 1777615948 | 4.44° C | 91% | 1015.2 hPa | 0 mm | - | - | - |
* Rain since midnight (hover to see other rain measurements)
** Current wind speed in m/s (hover to see current wind gust speed)